Packwaukee, Wisconsin
Current Conditions -  °F | °C
As of 9:56 PM on Tuesday 27 Jan 2015 (Local Time) from KY50 Reporting Station
Overcast Overcast  
Wind Chill: 24°   Ceiling: 2500
Heat Index: 24°   Visibility: 10mi
Dew Point: 21°   Wind: 0mph
Humidity: 88%   Direction: NA
Pressure: 30.24"   Gusts: NA
Location:  43.76°N, 89.46°W
Report Text: KY50 280356Z AUTO 00000KT 10SM OVC025 M04/M06 A3024 RMK AO2 TSNO T10441061 SLP248
Loading
Personal Weather Stations






























Interactive Weather Map New forecast layout! Learn more

10-Day Weather Forecast

Advertisements
Track Severe Weather on mobile